sensor_id;sensor_type;location;lat;lon;timestamp;temperature;humidity
9414;DHT22;4746;35.664;139.738;2022-11-04T00:01:44;18.20;99.90
9414;DHT22;4746;35.664;139.738;2022-11-04T00:04:14;18.20;99.90
9414;DHT22;4746;35.664;139.738;2022-11-04T00:06:44;18.20;99.90
9414;DHT22;4746;35.664;139.738;2022-11-04T00:09:20;18.20;99.90
9414;DHT22;4746;35.664;139.738;2022-11-04T00:11:49;18.20;99.90
9414;DHT22;4746;35.664;139.738;2022-11-04T00:14:36;18.20;99.90
9414;DHT22;4746;35.664;139.738;2022-11-04T00:17:04;18.20;99.90
9414;DHT22;4746;35.664;139.738;2022-11-04T00:19:46;18.20;99.90
9414;DHT22;4746;35.664;139.738;2022-11-04T00:22:33;18.30;99.90
9414;DHT22;4746;35.664;139.738;2022-11-04T00:25:19;18.40;99.90
9414;DHT22;4746;35.664;139.738;2022-11-04T00:28:18;18.40;99.90
9414;DHT22;4746;35.664;139.738;2022-11-04T00:31:06;18.50;99.90
9414;DHT22;4746;35.664;139.738;2022-11-04T00:33:54;18.60;99.90
9414;DHT22;4746;35.664;139.738;2022-11-04T00:36:24;18.60;99.90
9414;DHT22;4746;35.664;139.738;2022-11-04T00:38:52;18.70;99.90
9414;DHT22;4746;35.664;139.738;2022-11-04T00:41:20;18.70;99.90
9414;DHT22;4746;35.664;139.738;2022-11-04T00:43:57;18.70;99.90
9414;DHT22;4746;35.664;139.738;2022-11-04T00:46:27;18.80;99.90
9414;DHT22;4746;35.664;139.738;2022-11-04T00:48:56;18.80;99.90
9414;DHT22;4746;35.664;139.738;2022-11-04T00:51:25;18.80;99.90
9414;DHT22;4746;35.664;139.738;2022-11-04T00:53:53;18.80;99.90
9414;DHT22;4746;35.664;139.738;2022-11-04T00:56:23;18.90;99.90
9414;DHT22;4746;35.664;139.738;2022-11-04T00:58:50;19.00;99.90
9414;DHT22;4746;35.664;139.738;2022-11-04T01:01:18;19.00;99.90
9414;DHT22;4746;35.664;139.738;2022-11-04T01:03:48;19.00;99.90
9414;DHT22;4746;35.664;139.738;2022-11-04T01:06:17;19.10;99.90
9414;DHT22;4746;35.664;139.738;2022-11-04T01:08:46;19.10;99.90
9414;DHT22;4746;35.664;139.738;2022-11-04T01:11:15;19.20;99.90
9414;DHT22;4746;35.664;139.738;2022-11-04T01:13:43;19.30;99.90
9414;DHT22;4746;35.664;139.738;2022-11-04T01:16:11;19.30;99.90
9414;DHT22;4746;35.664;139.738;2022-11-04T01:18:39;19.40;99.90
9414;DHT22;4746;35.664;139.738;2022-11-04T01:21:09;19.40;99.90
9414;DHT22;4746;35.664;139.738;2022-11-04T01:23:39;19.40;99.90
9414;DHT22;4746;35.664;139.738;2022-11-04T01:26:19;19.40;99.90
9414;DHT22;4746;35.664;139.738;2022-11-04T01:28:51;19.40;99.90
9414;DHT22;4746;35.664;139.738;2022-11-04T01:31:26;19.50;99.90
9414;DHT22;4746;35.664;139.738;2022-11-04T01:33:56;19.50;99.90
9414;DHT22;4746;35.664;139.738;2022-11-04T01:36:25;19.60;99.90
9414;DHT22;4746;35.664;139.738;2022-11-04T01:38:56;19.70;99.90
9414;DHT22;4746;35.664;139.738;2022-11-04T01:41:27;19.80;99.90
9414;DHT22;4746;35.664;139.738;2022-11-04T01:46:48;19.90;99.90
9414;DHT22;4746;35.664;139.738;2022-11-04T01:52:10;20.30;99.90
9414;DHT22;4746;35.664;139.738;2022-11-04T01:54:44;20.50;99.90
9414;DHT22;4746;35.664;139.738;2022-11-04T01:57:19;20.70;99.90
9414;DHT22;4746;35.664;139.738;2022-11-04T01:59:53;20.90;99.90
9414;DHT22;4746;35.664;139.738;2022-11-04T02:02:24;21.00;99.90
9414;DHT22;4746;35.664;139.738;2022-11-04T02:04:51;21.00;99.90
9414;DHT22;4746;35.664;139.738;2022-11-04T02:07:19;21.10;99.90
9414;DHT22;4746;35.664;139.738;2022-11-04T02:09:48;21.30;99.90
9414;DHT22;4746;35.664;139.738;2022-11-04T02:12:16;21.40;99.90
9414;DHT22;4746;35.664;139.738;2022-11-04T02:15:02;21.50;99.90
9414;DHT22;4746;35.664;139.738;2022-11-04T02:18:02;21.70;99.90
9414;DHT22;4746;35.664;139.738;2022-11-04T02:30:05;22.60;99.90
9414;DHT22;4746;35.664;139.738;2022-11-04T02:38:59;23.10;99.90
9414;DHT22;4746;35.664;139.738;2022-11-04T02:41:48;23.30;99.90
9414;DHT22;4746;35.664;139.738;2022-11-04T02:47:36;23.40;99.90
9414;DHT22;4746;35.664;139.738;2022-11-04T02:53:32;23.60;99.90
9414;DHT22;4746;35.664;139.738;2022-11-04T02:56:11;23.80;99.90
9414;DHT22;4746;35.664;139.738;2022-11-04T02:58:47;24.00;99.90
9414;DHT22;4746;35.664;139.738;2022-11-04T03:01:24;24.30;99.90
9414;DHT22;4746;35.664;139.738;2022-11-04T03:04:05;24.50;99.90
9414;DHT22;4746;35.664;139.738;2022-11-04T03:06:44;24.60;99.90
9414;DHT22;4746;35.664;139.738;2022-11-04T03:09:18;24.80;99.90
9414;DHT22;4746;35.664;139.738;2022-11-04T03:11:54;25.00;99.90
9414;DHT22;4746;35.664;139.738;2022-11-04T03:14:50;25.30;99.90
9414;DHT22;4746;35.664;139.738;2022-11-04T03:17:36;25.60;99.90
9414;DHT22;4746;35.664;139.738;2022-11-04T03:20:26;25.60;99.90
9414;DHT22;4746;35.664;139.738;2022-11-04T03:22:57;25.70;99.90
9414;DHT22;4746;35.664;139.738;2022-11-04T03:25:31;25.80;99.90
9414;DHT22;4746;35.664;139.738;2022-11-04T03:34:10;26.60;99.90
9414;DHT22;4746;35.664;139.738;2022-11-04T03:36:37;26.40;99.90
9414;DHT22;4746;35.664;139.738;2022-11-04T03:39:05;26.30;99.90
9414;DHT22;4746;35.664;139.738;2022-11-04T03:41:51;26.20;99.90
9414;DHT22;4746;35.664;139.738;2022-11-04T03:44:23;26.00;99.90
9414;DHT22;4746;35.664;139.738;2022-11-04T03:46:52;25.60;99.90
9414;DHT22;4746;35.664;139.738;2022-11-04T03:49:24;25.10;99.90
9414;DHT22;4746;35.664;139.738;2022-11-04T03:51:52;24.80;99.90
9414;DHT22;4746;35.664;139.738;2022-11-04T03:54:20;24.50;99.90
9414;DHT22;4746;35.664;139.738;2022-11-04T04:08:36;24.60;99.90
9414;DHT22;4746;35.664;139.738;2022-11-04T04:17:31;25.40;99.90
9414;DHT22;4746;35.664;139.738;2022-11-04T04:20:13;26.20;99.90
9414;DHT22;4746;35.664;139.738;2022-11-04T04:23:05;26.80;99.90
9414;DHT22;4746;35.664;139.738;2022-11-04T04:25:59;27.20;99.90
9414;DHT22;4746;35.664;139.738;2022-11-04T04:28:50;27.40;99.90
9414;DHT22;4746;35.664;139.738;2022-11-04T04:31:20;27.40;99.90
9414;DHT22;4746;35.664;139.738;2022-11-04T04:34:09;27.50;99.90
9414;DHT22;4746;35.664;139.738;2022-11-04T04:36:59;27.40;99.90
9414;DHT22;4746;35.664;139.738;2022-11-04T04:39:44;27.30;99.90
9414;DHT22;4746;35.664;139.738;2022-11-04T04:42:34;27.10;99.90
9414;DHT22;4746;35.664;139.738;2022-11-04T04:47:58;26.40;99.90
9414;DHT22;4746;35.664;139.738;2022-11-04T04:50:30;26.40;99.90
9414;DHT22;4746;35.664;139.738;2022-11-04T04:53:03;26.40;99.90
9414;DHT22;4746;35.664;139.738;2022-11-04T04:55:31;26.20;99.90
9414;DHT22;4746;35.664;139.738;2022-11-04T04:57:59;26.00;99.90
9414;DHT22;4746;35.664;139.738;2022-11-04T05:00:26;25.90;99.90
9414;DHT22;4746;35.664;139.738;2022-11-04T05:02:54;25.80;99.90
9414;DHT22;4746;35.664;139.738;2022-11-04T05:05:22;25.80;99.90
9414;DHT22;4746;35.664;139.738;2022-11-04T05:07:49;25.60;99.90
9414;DHT22;4746;35.664;139.738;2022-11-04T05:10:17;25.40;99.90
9414;DHT22;4746;35.664;139.738;2022-11-04T05:12:45;25.10;99.90
9414;DHT22;4746;35.664;139.738;2022-11-04T05:15:33;24.90;99.90
9414;DHT22;4746;35.664;139.738;2022-11-04T05:18:01;24.60;99.90
9414;DHT22;4746;35.664;139.738;2022-11-04T05:20:29;24.40;99.90
9414;DHT22;4746;35.664;139.738;2022-11-04T05:22:59;24.10;99.90
9414;DHT22;4746;35.664;139.738;2022-11-04T05:25:26;24.10;99.90
9414;DHT22;4746;35.664;139.738;2022-11-04T05:27:57;24.00;99.90
9414;DHT22;4746;35.664;139.738;2022-11-04T05:30:28;24.00;99.90
9414;DHT22;4746;35.664;139.738;2022-11-04T05:32:55;24.00;99.90
9414;DHT22;4746;35.664;139.738;2022-11-04T05:35:23;23.90;99.90
9414;DHT22;4746;35.664;139.738;2022-11-04T05:37:51;23.90;99.90
9414;DHT22;4746;35.664;139.738;2022-11-04T05:40:21;23.80;99.90
9414;DHT22;4746;35.664;139.738;2022-11-04T05:42:49;23.80;99.90
9414;DHT22;4746;35.664;139.738;2022-11-04T05:45:17;23.70;99.90
9414;DHT22;4746;35.664;139.738;2022-11-04T05:47:44;23.50;99.90
9414;DHT22;4746;35.664;139.738;2022-11-04T05:50:12;23.30;99.90
9414;DHT22;4746;35.664;139.738;2022-11-04T05:52:39;23.10;99.90
9414;DHT22;4746;35.664;139.738;2022-11-04T05:55:07;23.00;99.90
9414;DHT22;4746;35.664;139.738;2022-11-04T05:57:34;22.80;99.90
9414;DHT22;4746;35.664;139.738;2022-11-04T06:00:03;22.60;99.90
9414;DHT22;4746;35.664;139.738;2022-11-04T06:02:32;22.40;99.90
9414;DHT22;4746;35.664;139.738;2022-11-04T06:04:59;22.10;99.90
9414;DHT22;4746;35.664;139.738;2022-11-04T06:07:27;21.90;99.90
9414;DHT22;4746;35.664;139.738;2022-11-04T06:09:54;21.70;99.90
9414;DHT22;4746;35.664;139.738;2022-11-04T06:12:22;21.70;99.90
9414;DHT22;4746;35.664;139.738;2022-11-04T06:14:49;21.50;99.90
9414;DHT22;4746;35.664;139.738;2022-11-04T06:17:19;21.40;99.90
9414;DHT22;4746;35.664;139.738;2022-11-04T06:19:48;21.30;99.90
9414;DHT22;4746;35.664;139.738;2022-11-04T06:22:18;21.30;99.90
9414;DHT22;4746;35.664;139.738;2022-11-04T06:24:46;21.10;99.90
9414;DHT22;4746;35.664;139.738;2022-11-04T06:27:13;20.90;99.90
9414;DHT22;4746;35.664;139.738;2022-11-04T06:29:41;20.70;99.90
9414;DHT22;4746;35.664;139.738;2022-11-04T06:32:11;20.60;99.90
9414;DHT22;4746;35.664;139.738;2022-11-04T06:34:40;20.60;99.90
9414;DHT22;4746;35.664;139.738;2022-11-04T06:37:08;20.50;99.90
9414;DHT22;4746;35.664;139.738;2022-11-04T06:39:36;20.50;99.90
9414;DHT22;4746;35.664;139.738;2022-11-04T06:42:04;20.30;99.90
9414;DHT22;4746;35.664;139.738;2022-11-04T06:44:31;20.30;99.90
9414;DHT22;4746;35.664;139.738;2022-11-04T06:47:00;20.30;99.90
9414;DHT22;4746;35.664;139.738;2022-11-04T06:49:28;20.30;99.90
9414;DHT22;4746;35.664;139.738;2022-11-04T06:51:55;20.20;99.90
9414;DHT22;4746;35.664;139.738;2022-11-04T06:54:23;20.20;99.90
9414;DHT22;4746;35.664;139.738;2022-11-04T06:56:50;20.10;99.90
9414;DHT22;4746;35.664;139.738;2022-11-04T06:59:19;20.10;99.90
9414;DHT22;4746;35.664;139.738;2022-11-04T07:01:47;20.20;99.90
9414;DHT22;4746;35.664;139.738;2022-11-04T07:04:17;20.20;99.90
9414;DHT22;4746;35.664;139.738;2022-11-04T07:06:44;20.20;99.90
9414;DHT22;4746;35.664;139.738;2022-11-04T07:09:14;20.10;99.90
9414;DHT22;4746;35.664;139.738;2022-11-04T07:11:43;20.00;99.90
9414;DHT22;4746;35.664;139.738;2022-11-04T07:14:10;20.00;99.90
9414;DHT22;4746;35.664;139.738;2022-11-04T07:16:38;19.90;99.90
9414;DHT22;4746;35.664;139.738;2022-11-04T07:19:06;19.80;99.90
9414;DHT22;4746;35.664;139.738;2022-11-04T07:21:33;19.80;99.90
9414;DHT22;4746;35.664;139.738;2022-11-04T07:24:01;19.70;99.90
9414;DHT22;4746;35.664;139.738;2022-11-04T07:26:29;19.70;99.90
9414;DHT22;4746;35.664;139.738;2022-11-04T07:28:56;19.60;99.90
9414;DHT22;4746;35.664;139.738;2022-11-04T07:31:26;19.60;99.90
9414;DHT22;4746;35.664;139.738;2022-11-04T07:33:54;19.50;99.90
9414;DHT22;4746;35.664;139.738;2022-11-04T07:36:21;19.40;99.90
9414;DHT22;4746;35.664;139.738;2022-11-04T07:38:49;19.30;99.90
9414;DHT22;4746;35.664;139.738;2022-11-04T07:41:17;19.20;99.90
9414;DHT22;4746;35.664;139.738;2022-11-04T07:43:48;19.10;99.90
9414;DHT22;4746;35.664;139.738;2022-11-04T07:46:20;19.00;99.90
9414;DHT22;4746;35.664;139.738;2022-11-04T07:48:48;18.90;99.90
9414;DHT22;4746;35.664;139.738;2022-11-04T07:51:17;18.80;99.90
9414;DHT22;4746;35.664;139.738;2022-11-04T07:53:46;18.70;99.90
9414;DHT22;4746;35.664;139.738;2022-11-04T07:56:14;18.60;99.90
9414;DHT22;4746;35.664;139.738;2022-11-04T07:58:42;18.70;99.90
9414;DHT22;4746;35.664;139.738;2022-11-04T08:01:13;18.60;99.90
9414;DHT22;4746;35.664;139.738;2022-11-04T08:03:42;18.60;99.90
9414;DHT22;4746;35.664;139.738;2022-11-04T08:06:14;18.50;99.90
9414;DHT22;4746;35.664;139.738;2022-11-04T08:08:42;18.40;99.90
9414;DHT22;4746;35.664;139.738;2022-11-04T08:11:13;18.40;99.90
9414;DHT22;4746;35.664;139.738;2022-11-04T08:13:45;18.40;99.90
9414;DHT22;4746;35.664;139.738;2022-11-04T08:16:15;18.40;99.90
9414;DHT22;4746;35.664;139.738;2022-11-04T08:18:46;18.30;99.90
9414;DHT22;4746;35.664;139.738;2022-11-04T08:21:16;18.30;99.90
9414;DHT22;4746;35.664;139.738;2022-11-04T08:23:46;18.30;99.90
9414;DHT22;4746;35.664;139.738;2022-11-04T08:26:18;18.30;99.90
9414;DHT22;4746;35.664;139.738;2022-11-04T08:28:46;18.30;99.90
9414;DHT22;4746;35.664;139.738;2022-11-04T08:31:17;18.30;99.90
9414;DHT22;4746;35.664;139.738;2022-11-04T08:33:45;18.20;99.90
9414;DHT22;4746;35.664;139.738;2022-11-04T08:38:50;18.10;99.90
9414;DHT22;4746;35.664;139.738;2022-11-04T08:41:21;18.00;99.90
9414;DHT22;4746;35.664;139.738;2022-11-04T08:43:58;18.00;99.90
9414;DHT22;4746;35.664;139.738;2022-11-04T08:46:33;18.10;99.90
9414;DHT22;4746;35.664;139.738;2022-11-04T08:49:04;18.00;99.90
9414;DHT22;4746;35.664;139.738;2022-11-04T08:51:34;18.00;99.90
9414;DHT22;4746;35.664;139.738;2022-11-04T08:54:04;18.00;99.90
9414;DHT22;4746;35.664;139.738;2022-11-04T08:56:34;18.00;99.90
9414;DHT22;4746;35.664;139.738;2022-11-04T08:59:05;18.00;99.90
9414;DHT22;4746;35.664;139.738;2022-11-04T09:01:35;17.90;99.90
9414;DHT22;4746;35.664;139.738;2022-11-04T09:04:04;17.90;99.90
9414;DHT22;4746;35.664;139.738;2022-11-04T09:06:35;17.90;99.90
9414;DHT22;4746;35.664;139.738;2022-11-04T09:09:07;17.90;99.90
9414;DHT22;4746;35.664;139.738;2022-11-04T09:11:39;17.90;99.90
9414;DHT22;4746;35.664;139.738;2022-11-04T09:14:09;18.00;99.90
9414;DHT22;4746;35.664;139.738;2022-11-04T09:16:38;18.00;99.90
9414;DHT22;4746;35.664;139.738;2022-11-04T09:19:07;17.90;99.90
9414;DHT22;4746;35.664;139.738;2022-11-04T09:21:35;17.80;99.90
9414;DHT22;4746;35.664;139.738;2022-11-04T09:24:03;17.80;99.90
9414;DHT22;4746;35.664;139.738;2022-11-04T09:26:33;17.90;99.90
9414;DHT22;4746;35.664;139.738;2022-11-04T09:29:01;17.80;99.90
9414;DHT22;4746;35.664;139.738;2022-11-04T09:31:29;17.80;99.90
9414;DHT22;4746;35.664;139.738;2022-11-04T09:33:57;17.90;99.90
9414;DHT22;4746;35.664;139.738;2022-11-04T09:36:24;17.90;99.90
9414;DHT22;4746;35.664;139.738;2022-11-04T09:38:54;17.80;99.90
9414;DHT22;4746;35.664;139.738;2022-11-04T09:44:37;17.80;99.90
9414;DHT22;4746;35.664;139.738;2022-11-04T09:47:14;17.80;99.90
9414;DHT22;4746;35.664;139.738;2022-11-04T09:49:45;17.80;99.90
9414;DHT22;4746;35.664;139.738;2022-11-04T09:52:23;17.70;99.90
9414;DHT22;4746;35.664;139.738;2022-11-04T09:57:40;17.60;99.90
9414;DHT22;4746;35.664;139.738;2022-11-04T10:00:17;17.40;99.90
9414;DHT22;4746;35.664;139.738;2022-11-04T10:02:50;17.00;99.90
9414;DHT22;4746;35.664;139.738;2022-11-04T10:06:15;16.80;99.90
9414;DHT22;4746;35.664;139.738;2022-11-04T10:12:08;16.60;99.90
9414;DHT22;4746;35.664;139.738;2022-11-04T10:18:16;16.50;99.90
9414;DHT22;4746;35.664;139.738;2022-11-04T10:21:09;16.40;99.90
9414;DHT22;4746;35.664;139.738;2022-11-04T10:24:08;16.30;99.90
9414;DHT22;4746;35.664;139.738;2022-11-04T10:26:53;16.30;99.90
9414;DHT22;4746;35.664;139.738;2022-11-04T10:29:32;16.20;99.90
9414;DHT22;4746;35.664;139.738;2022-11-04T10:32:17;16.10;99.90
9414;DHT22;4746;35.664;139.738;2022-11-04T10:35:01;16.10;99.90
9414;DHT22;4746;35.664;139.738;2022-11-04T10:37:52;16.00;99.90
9414;DHT22;4746;35.664;139.738;2022-11-04T10:40:31;15.90;99.90
9414;DHT22;4746;35.664;139.738;2022-11-04T10:43:03;15.80;99.90
9414;DHT22;4746;35.664;139.738;2022-11-04T10:49:00;15.70;99.90
9414;DHT22;4746;35.664;139.738;2022-11-04T10:51:53;15.60;99.90
9414;DHT22;4746;35.664;139.738;2022-11-04T10:54:25;15.50;99.90
9414;DHT22;4746;35.664;139.738;2022-11-04T10:56:55;15.40;99.90
9414;DHT22;4746;35.664;139.738;2022-11-04T10:59:27;15.40;99.90
9414;DHT22;4746;35.664;139.738;2022-11-04T11:01:58;15.40;99.90
9414;DHT22;4746;35.664;139.738;2022-11-04T11:04:28;15.30;99.90
9414;DHT22;4746;35.664;139.738;2022-11-04T11:07:01;15.40;99.90
9414;DHT22;4746;35.664;139.738;2022-11-04T11:14:42;15.40;99.90
9414;DHT22;4746;35.664;139.738;2022-11-04T11:22:44;15.40;99.90
9414;DHT22;4746;35.664;139.738;2022-11-04T11:25:28;15.30;99.90
9414;DHT22;4746;35.664;139.738;2022-11-04T11:28:03;15.20;99.90
9414;DHT22;4746;35.664;139.738;2022-11-04T11:33:19;15.10;99.90
9414;DHT22;4746;35.664;139.738;2022-11-04T11:35:59;15.00;99.90
9414;DHT22;4746;35.664;139.738;2022-11-04T11:39:24;14.90;99.90
9414;DHT22;4746;35.664;139.738;2022-11-04T11:41:29;14.80;99.90
9414;DHT22;4746;35.664;139.738;2022-11-04T11:44:29;14.70;99.90
9414;DHT22;4746;35.664;139.738;2022-11-04T11:47:06;14.80;99.90
9414;DHT22;4746;35.664;139.738;2022-11-04T11:49:44;14.60;99.90
9414;DHT22;4746;35.664;139.738;2022-11-04T11:52:33;14.50;99.90
9414;DHT22;4746;35.664;139.738;2022-11-04T11:58:10;14.40;99.90
9414;DHT22;4746;35.664;139.738;2022-11-04T12:03:54;14.30;99.90
9414;DHT22;4746;35.664;139.738;2022-11-04T12:09:39;14.40;99.90
9414;DHT22;4746;35.664;139.738;2022-11-04T12:12:22;14.40;99.90
9414;DHT22;4746;35.664;139.738;2022-11-04T12:21:09;14.40;99.90
9414;DHT22;4746;35.664;139.738;2022-11-04T12:30:07;14.40;99.90
9414;DHT22;4746;35.664;139.738;2022-11-04T12:36:07;14.40;99.90
9414;DHT22;4746;35.664;139.738;2022-11-04T12:39:08;14.40;99.90
9414;DHT22;4746;35.664;139.738;2022-11-04T12:47:43;14.50;99.90
9414;DHT22;4746;35.664;139.738;2022-11-04T12:53:36;14.40;99.90
9414;DHT22;4746;35.664;139.738;2022-11-04T12:56:36;14.20;99.90
9414;DHT22;4746;35.664;139.738;2022-11-04T13:01:55;13.90;99.90
9414;DHT22;4746;35.664;139.738;2022-11-04T13:10:57;13.90;99.90
9414;DHT22;4746;35.664;139.738;2022-11-04T13:13:32;13.90;99.90
9414;DHT22;4746;35.664;139.738;2022-11-04T13:16:07;13.80;99.90
9414;DHT22;4746;35.664;139.738;2022-11-04T13:18:39;13.80;99.90
9414;DHT22;4746;35.664;139.738;2022-11-04T13:21:12;13.90;99.90
9414;DHT22;4746;35.664;139.738;2022-11-04T13:24:26;13.90;99.90
9414;DHT22;4746;35.664;139.738;2022-11-04T13:27:02;13.90;99.90
9414;DHT22;4746;35.664;139.738;2022-11-04T13:29:40;13.90;99.90
9414;DHT22;4746;35.664;139.738;2022-11-04T13:35:18;14.10;99.90
9414;DHT22;4746;35.664;139.738;2022-11-04T13:38:21;14.20;99.90
9414;DHT22;4746;35.664;139.738;2022-11-04T13:44:48;14.30;99.90
9414;DHT22;4746;35.664;139.738;2022-11-04T13:47:21;14.30;99.90
9414;DHT22;4746;35.664;139.738;2022-11-04T13:49:54;14.40;99.90
9414;DHT22;4746;35.664;139.738;2022-11-04T13:52:29;14.40;99.90
9414;DHT22;4746;35.664;139.738;2022-11-04T13:55:17;14.50;99.90
9414;DHT22;4746;35.664;139.738;2022-11-04T13:58:02;14.50;99.90
9414;DHT22;4746;35.664;139.738;2022-11-04T14:00:33;14.50;99.90
9414;DHT22;4746;35.664;139.738;2022-11-04T14:08:29;14.60;99.90
9414;DHT22;4746;35.664;139.738;2022-11-04T14:11:01;14.60;99.90
9414;DHT22;4746;35.664;139.738;2022-11-04T14:16:37;14.60;99.90
9414;DHT22;4746;35.664;139.738;2022-11-04T14:22:15;14.60;99.90
9414;DHT22;4746;35.664;139.738;2022-11-04T14:24:57;14.60;99.90
9414;DHT22;4746;35.664;139.738;2022-11-04T14:27:38;14.60;99.90
9414;DHT22;4746;35.664;139.738;2022-11-04T14:30:33;14.60;99.90
9414;DHT22;4746;35.664;139.738;2022-11-04T14:33:19;14.60;99.90
9414;DHT22;4746;35.664;139.738;2022-11-04T14:35:55;14.50;99.90
9414;DHT22;4746;35.664;139.738;2022-11-04T14:38:40;14.40;99.90
9414;DHT22;4746;35.664;139.738;2022-11-04T14:44:00;14.30;99.90
9414;DHT22;4746;35.664;139.738;2022-11-04T14:46:38;14.30;99.90
9414;DHT22;4746;35.664;139.738;2022-11-04T14:52:23;14.30;99.90
9414;DHT22;4746;35.664;139.738;2022-11-04T14:55:16;14.30;99.90
9414;DHT22;4746;35.664;139.738;2022-11-04T14:57:55;14.30;99.90
9414;DHT22;4746;35.664;139.738;2022-11-04T15:03:22;14.30;99.90
9414;DHT22;4746;35.664;139.738;2022-11-04T15:06:03;14.30;99.90
9414;DHT22;4746;35.664;139.738;2022-11-04T15:08:39;14.30;99.90
9414;DHT22;4746;35.664;139.738;2022-11-04T15:13:49;14.30;99.90
9414;DHT22;4746;35.664;139.738;2022-11-04T15:16:25;14.20;99.90
9414;DHT22;4746;35.664;139.738;2022-11-04T15:18:57;14.10;99.90
9414;DHT22;4746;35.664;139.738;2022-11-04T15:21:25;14.10;99.90
9414;DHT22;4746;35.664;139.738;2022-11-04T15:23:54;14.20;99.90
9414;DHT22;4746;35.664;139.738;2022-11-04T15:26:25;14.10;99.90
9414;DHT22;4746;35.664;139.738;2022-11-04T15:29:06;14.10;99.90
9414;DHT22;4746;35.664;139.738;2022-11-04T15:31:37;14.10;99.90
9414;DHT22;4746;35.664;139.738;2022-11-04T15:34:17;14.00;99.90
9414;DHT22;4746;35.664;139.738;2022-11-04T15:36:46;14.00;99.90
9414;DHT22;4746;35.664;139.738;2022-11-04T15:39:36;14.10;99.90
9414;DHT22;4746;35.664;139.738;2022-11-04T15:42:16;14.10;99.90
9414;DHT22;4746;35.664;139.738;2022-11-04T15:45:37;14.10;99.90
9414;DHT22;4746;35.664;139.738;2022-11-04T15:48:28;14.10;99.90
9414;DHT22;4746;35.664;139.738;2022-11-04T15:53:59;14.20;99.90
9414;DHT22;4746;35.664;139.738;2022-11-04T15:56:39;14.30;99.90
9414;DHT22;4746;35.664;139.738;2022-11-04T15:59:18;14.30;99.90
9414;DHT22;4746;35.664;139.738;2022-11-04T16:01:52;14.20;99.90
9414;DHT22;4746;35.664;139.738;2022-11-04T16:04:23;14.20;99.90
9414;DHT22;4746;35.664;139.738;2022-11-04T16:09:49;14.20;99.90
9414;DHT22;4746;35.664;139.738;2022-11-04T16:12:27;14.30;99.90
9414;DHT22;4746;35.664;139.738;2022-11-04T16:15:01;14.30;99.90
9414;DHT22;4746;35.664;139.738;2022-11-04T16:17:29;14.40;99.90
9414;DHT22;4746;35.664;139.738;2022-11-04T16:20:03;14.40;99.90
9414;DHT22;4746;35.664;139.738;2022-11-04T16:22:36;14.30;99.90
9414;DHT22;4746;35.664;139.738;2022-11-04T16:25:07;14.30;99.90
9414;DHT22;4746;35.664;139.738;2022-11-04T16:27:45;14.30;99.90
9414;DHT22;4746;35.664;139.738;2022-11-04T16:30:18;14.30;99.90
9414;DHT22;4746;35.664;139.738;2022-11-04T16:32:54;14.40;99.90
9414;DHT22;4746;35.664;139.738;2022-11-04T16:35:39;14.30;99.90
9414;DHT22;4746;35.664;139.738;2022-11-04T16:38:08;14.40;99.90
9414;DHT22;4746;35.664;139.738;2022-11-04T16:40:35;14.40;99.90
9414;DHT22;4746;35.664;139.738;2022-11-04T16:43:03;14.50;99.90
9414;DHT22;4746;35.664;139.738;2022-11-04T16:45:32;14.50;99.90
9414;DHT22;4746;35.664;139.738;2022-11-04T16:48:02;14.50;99.90
9414;DHT22;4746;35.664;139.738;2022-11-04T16:50:30;14.50;99.90
9414;DHT22;4746;35.664;139.738;2022-11-04T16:52:58;14.50;99.90
9414;DHT22;4746;35.664;139.738;2022-11-04T16:55:29;14.50;99.90
9414;DHT22;4746;35.664;139.738;2022-11-04T16:58:02;14.50;99.90
9414;DHT22;4746;35.664;139.738;2022-11-04T17:00:31;14.60;99.90
9414;DHT22;4746;35.664;139.738;2022-11-04T17:03:00;14.60;99.90
9414;DHT22;4746;35.664;139.738;2022-11-04T17:05:39;14.60;99.90
9414;DHT22;4746;35.664;139.738;2022-11-04T17:08:08;14.60;99.90
9414;DHT22;4746;35.664;139.738;2022-11-04T17:10:37;14.60;99.90
9414;DHT22;4746;35.664;139.738;2022-11-04T17:13:05;14.60;99.90
9414;DHT22;4746;35.664;139.738;2022-11-04T17:15:34;14.60;99.90
9414;DHT22;4746;35.664;139.738;2022-11-04T17:18:01;14.60;99.90
9414;DHT22;4746;35.664;139.738;2022-11-04T17:20:29;14.60;99.90
9414;DHT22;4746;35.664;139.738;2022-11-04T17:22:58;14.60;99.90
9414;DHT22;4746;35.664;139.738;2022-11-04T17:25:28;14.60;99.90
9414;DHT22;4746;35.664;139.738;2022-11-04T17:27:55;14.60;99.90
9414;DHT22;4746;35.664;139.738;2022-11-04T17:30:25;14.60;99.90
9414;DHT22;4746;35.664;139.738;2022-11-04T17:32:52;14.60;99.90
9414;DHT22;4746;35.664;139.738;2022-11-04T17:35:20;14.60;99.90
9414;DHT22;4746;35.664;139.738;2022-11-04T17:37:53;14.70;99.90
9414;DHT22;4746;35.664;139.738;2022-11-04T17:40:22;14.70;99.90
9414;DHT22;4746;35.664;139.738;2022-11-04T17:42:49;14.60;99.90
9414;DHT22;4746;35.664;139.738;2022-11-04T17:45:35;14.60;99.90
9414;DHT22;4746;35.664;139.738;2022-11-04T17:48:03;14.70;99.90
9414;DHT22;4746;35.664;139.738;2022-11-04T17:50:32;14.70;99.90
9414;DHT22;4746;35.664;139.738;2022-11-04T17:53:00;14.70;99.90
9414;DHT22;4746;35.664;139.738;2022-11-04T17:55:27;14.70;99.90
9414;DHT22;4746;35.664;139.738;2022-11-04T17:57:55;14.80;99.90
9414;DHT22;4746;35.664;139.738;2022-11-04T18:00:22;14.80;99.90
9414;DHT22;4746;35.664;139.738;2022-11-04T18:02:55;14.80;99.90
9414;DHT22;4746;35.664;139.738;2022-11-04T18:05:22;14.80;99.90
9414;DHT22;4746;35.664;139.738;2022-11-04T18:07:50;14.80;99.90
9414;DHT22;4746;35.664;139.738;2022-11-04T18:10:20;14.80;99.90
9414;DHT22;4746;35.664;139.738;2022-11-04T18:12:47;14.70;99.90
9414;DHT22;4746;35.664;139.738;2022-11-04T18:15:16;14.70;99.90
9414;DHT22;4746;35.664;139.738;2022-11-04T18:17:44;14.70;99.90
9414;DHT22;4746;35.664;139.738;2022-11-04T18:20:13;14.70;99.90
9414;DHT22;4746;35.664;139.738;2022-11-04T18:22:42;14.80;99.90
9414;DHT22;4746;35.664;139.738;2022-11-04T18:25:11;14.70;99.90
9414;DHT22;4746;35.664;139.738;2022-11-04T18:27:39;14.70;99.90
9414;DHT22;4746;35.664;139.738;2022-11-04T18:30:06;14.80;99.90
9414;DHT22;4746;35.664;139.738;2022-11-04T18:32:35;14.70;99.90
9414;DHT22;4746;35.664;139.738;2022-11-04T18:35:02;14.70;99.90
9414;DHT22;4746;35.664;139.738;2022-11-04T18:37:30;14.70;99.90
9414;DHT22;4746;35.664;139.738;2022-11-04T18:39:58;14.70;99.90
9414;DHT22;4746;35.664;139.738;2022-11-04T18:42:26;14.70;99.90
9414;DHT22;4746;35.664;139.738;2022-11-04T18:44:53;14.70;99.90
9414;DHT22;4746;35.664;139.738;2022-11-04T18:47:20;14.80;99.90
9414;DHT22;4746;35.664;139.738;2022-11-04T18:49:49;14.70;99.90
9414;DHT22;4746;35.664;139.738;2022-11-04T18:52:17;14.70;99.90
9414;DHT22;4746;35.664;139.738;2022-11-04T18:54:44;14.70;99.90
9414;DHT22;4746;35.664;139.738;2022-11-04T18:57:12;14.70;99.90